Time;durP1;ratioP1;P1;durP2;ratioP2;P2;SDS_P1;SDS_P2;PMS_P1;PMS_P2;Temp;Humidity;BMP_temperature;BMP_pressure;BME280_temperature;BME280_humidity;BME280_pressure;Samples;Min_cycle;Max_cycle;Signal;HPM_P1;HPM_P2
2021/07/08 00:00:21;;;;;;;4.47;2.85;;;21.10;69.90;;;;;;5075899;28;20071;-72
2021/07/08 00:02:48;;;;;;;4.07;2.47;;;21.10;69.90;;;;;;5075581;28;20055;-71
2021/07/08 00:05:16;;;;;;;3.42;2.00;;;21.10;70.00;;;;;;5075819;28;20110;-72
2021/07/08 00:07:42;;;;;;;4.05;2.22;;;21.10;70.00;;;;;;5075884;28;20119;-72
2021/07/08 00:10:11;;;;;;;3.30;2.33;;;21.00;69.90;;;;;;5075831;28;20405;-72
2021/07/08 00:12:37;;;;;;;3.13;2.15;;;21.00;69.90;;;;;;5075233;28;20048;-72
2021/07/08 00:15:23;;;;;;;2.25;2.03;;;21.00;69.90;;;;;;5075353;28;20060;-71
2021/07/08 00:17:50;;;;;;;5.93;2.80;;;21.00;69.70;;;;;;5074808;28;20526;-72
2021/07/08 00:20:19;;;;;;;2.85;2.30;;;21.00;69.90;;;;;;5075277;28;20109;-72
2021/07/08 00:22:45;;;;;;;3.53;2.70;;;21.00;69.90;;;;;;5075712;28;20048;-72
2021/07/08 00:25:14;;;;;;;5.32;2.65;;;21.00;70.00;;;;;;5075021;28;20041;-73
2021/07/08 00:27:41;;;;;;;3.15;2.20;;;21.00;70.00;;;;;;5075590;28;20051;-72
2021/07/08 00:30:08;;;;;;;3.42;2.35;;;21.00;70.00;;;;;;5075549;28;20045;-72
2021/07/08 00:32:34;;;;;;;3.17;2.25;;;21.00;70.00;;;;;;5075472;28;20048;-72
2021/07/08 00:35:00;;;;;;;4.13;2.70;;;21.00;70.00;;;;;;5074776;28;20040;-72
2021/07/08 00:37:26;;;;;;;4.65;2.63;;;21.00;70.00;;;;;;5074812;28;20041;-72
2021/07/08 00:39:52;;;;;;;3.20;2.35;;;21.00;70.00;;;;;;5075126;28;20052;-72
2021/07/08 00:42:18;;;;;;;3.90;2.70;;;21.00;70.10;;;;;;5075857;28;20040;-73
2021/07/08 00:44:45;;;;;;;2.97;2.22;;;21.00;70.10;;;;;;5075327;28;20052;-73
2021/07/08 00:47:11;;;;;;;5.55;2.60;;;21.00;70.00;;;;;;5075134;28;20047;-72
2021/07/08 00:49:37;;;;;;;4.13;2.30;;;21.00;70.10;;;;;;5075016;28;20340;-72
2021/07/08 00:52:03;;;;;;;3.13;2.55;;;21.00;70.10;;;;;;5075365;28;20040;-73
2021/07/08 00:54:29;;;;;;;3.50;2.80;;;20.90;70.00;;;;;;5075111;28;20353;-71
2021/07/08 00:56:55;;;;;;;2.88;2.42;;;21.00;70.10;;;;;;5075502;28;20051;-72
2021/07/08 00:59:21;;;;;;;4.28;2.25;;;21.00;70.10;;;;;;5091388;28;20049;-72
2021/07/08 01:01:49;;;;;;;2.97;2.53;;;21.00;70.10;;;;;;5074897;28;20068;-72
2021/07/08 01:04:15;;;;;;;4.13;2.53;;;21.00;70.00;;;;;;5075342;28;20061;-73
2021/07/08 01:06:44;;;;;;;3.65;2.47;;;21.00;70.00;;;;;;5075536;28;20102;-72
2021/07/08 01:09:14;;;;;;;3.70;2.70;;;21.00;70.00;;;;;;5074922;28;20074;-72
2021/07/08 01:11:41;;;;;;;3.28;2.38;;;20.90;69.90;;;;;;5075095;28;20491;-72
2021/07/08 01:14:08;;;;;;;3.33;2.35;;;20.90;70.60;;;;;;5075325;28;20076;-72
2021/07/08 01:16:34;;;;;;;4.82;2.65;;;20.90;70.00;;;;;;5075093;28;20049;-72
2021/07/08 01:19:02;;;;;;;3.55;2.75;;;20.90;70.00;;;;;;5075538;28;20051;-72
2021/07/08 01:21:34;;;;;;;4.30;2.67;;;20.90;70.00;;;;;;5074787;28;20119;-72
2021/07/08 01:24:02;;;;;;;3.13;2.75;;;20.90;70.00;;;;;;5075182;28;20041;-73
2021/07/08 01:26:28;;;;;;;3.90;2.85;;;20.90;70.00;;;;;;5078611;28;20063;-73
2021/07/08 01:29:02;;;;;;;4.40;2.78;;;20.90;70.00;;;;;;5079180;28;20067;-72
2021/07/08 01:31:28;;;;;;;3.60;2.20;;;20.90;70.00;;;;;;5078457;28;20071;-72
2021/07/08 01:33:54;;;;;;;4.47;2.65;;;20.90;70.00;;;;;;5079099;28;20083;-72
2021/07/08 01:36:21;;;;;;;2.97;2.25;;;20.90;69.90;;;;;;5078552;28;20075;-72
2021/07/08 01:38:47;;;;;;;4.10;2.58;;;20.90;69.90;;;;;;5078526;28;20052;-72
2021/07/08 01:41:14;;;;;;;2.90;2.50;;;20.90;69.90;;;;;;5078596;28;20036;-72
2021/07/08 01:43:42;;;;;;;2.95;2.47;;;20.90;70.00;;;;;;5078615;28;20490;-72
2021/07/08 01:46:10;;;;;;;2.60;2.40;;;20.80;69.90;;;;;;5078404;28;20060;-72
2021/07/08 01:48:37;;;;;;;4.88;2.70;;;20.80;69.90;;;;;;5078529;28;20110;-72
2021/07/08 01:51:05;;;;;;;4.20;2.95;;;20.80;69.90;;;;;;5078113;28;20051;-71
2021/07/08 01:53:31;;;;;;;4.95;2.90;;;20.80;69.90;;;;;;5078151;28;20044;-72
2021/07/08 01:55:57;;;;;;;3.55;2.58;;;20.80;69.90;;;;;;5078794;28;20054;-72
2021/07/08 01:58:24;;;;;;;4.78;2.70;;;20.90;69.90;;;;;;5078228;28;20075;-72
2021/07/08 02:00:51;;;;;;;3.42;3.03;;;20.80;69.80;;;;;;5078377;28;20041;-72
2021/07/08 02:03:17;;;;;;;4.10;2.78;;;20.80;69.80;;;;;;5077966;28;20052;-72
2021/07/08 02:05:44;;;;;;;4.05;2.60;;;20.80;69.90;;;;;;5078238;28;20049;-72
2021/07/08 02:08:10;;;;;;;3.97;2.60;;;20.80;69.80;;;;;;5077889;28;20345;-72
2021/07/08 02:10:35;;;;;;;2.80;2.50;;;20.80;69.80;;;;;;5078440;28;20105;-72
2021/07/08 02:13:04;;;;;;;4.28;2.80;;;20.80;69.80;;;;;;5077655;28;20056;-72
2021/07/08 02:15:29;;;;;;;3.20;2.70;;;20.80;70.40;;;;;;5077378;28;20140;-71
2021/07/08 02:17:55;;;;;;;3.65;2.90;;;20.80;69.90;;;;;;5077781;28;20127;-73
2021/07/08 02:20:21;;;;;;;4.22;2.80;;;20.80;69.90;;;;;;5077639;28;20052;-72
2021/07/08 02:22:48;;;;;;;3.40;2.58;;;20.80;69.90;;;;;;5077553;28;20044;-74
2021/07/08 02:25:14;;;;;;;4.28;2.97;;;20.80;69.90;;;;;;5077198;28;20049;-72
2021/07/08 02:27:41;;;;;;;4.63;2.92;;;20.70;69.90;;;;;;5077498;28;20049;-72
2021/07/08 02:30:14;;;;;;;4.78;3.15;;;20.80;70.00;;;;;;5077990;28;20049;-71
2021/07/08 02:32:41;;;;;;;4.95;3.10;;;20.80;69.90;;;;;;5077333;28;20075;-71
2021/07/08 02:35:09;;;;;;;3.83;2.70;;;20.80;70.00;;;;;;5077001;28;20044;-72
2021/07/08 02:37:38;;;;;;;4.35;2.50;;;20.70;69.90;;;;;;5077407;28;20043;-72
2021/07/08 02:40:08;;;;;;;4.15;3.03;;;20.70;69.90;;;;;;5076858;28;20502;-71
2021/07/08 02:42:34;;;;;;;3.95;2.97;;;20.70;69.90;;;;;;5077523;28;20052;-72
2021/07/08 02:45:04;;;;;;;3.72;2.75;;;20.70;69.90;;;;;;5076651;28;20055;-72
2021/07/08 02:47:30;;;;;;;5.93;3.08;;;20.80;69.90;;;;;;5077184;28;20044;-72
2021/07/08 02:49:57;;;;;;;3.65;2.85;;;20.70;70.00;;;;;;5077187;28;20049;-72
2021/07/08 02:52:23;;;;;;;4.00;2.90;;;20.70;70.00;;;;;;5077002;28;20098;-72
2021/07/08 02:54:48;;;;;;;2.97;2.42;;;20.70;70.00;;;;;;5077476;28;20045;-72
2021/07/08 02:57:14;;;;;;;5.20;2.80;;;20.70;70.00;;;;;;5077138;28;20053;-73
2021/07/08 02:59:40;;;;;;;4.15;2.67;;;20.70;69.90;;;;;;5077014;28;20052;-72
2021/07/08 03:02:06;;;;;;;4.18;2.63;;;20.70;70.00;;;;;;5077166;28;20450;-72
2021/07/08 03:04:32;;;;;;;4.80;2.80;;;20.70;70.00;;;;;;5076904;28;20119;-72
2021/07/08 03:06:58;;;;;;;3.05;2.72;;;20.70;70.10;;;;;;5076702;28;20513;-72
2021/07/08 03:09:24;;;;;;;3.25;2.75;;;20.70;70.10;;;;;;5076653;28;20056;-72
2021/07/08 03:11:50;;;;;;;3.92;3.00;;;20.60;70.00;;;;;;5077192;28;20114;-71
2021/07/08 03:14:16;;;;;;;3.53;2.58;;;20.70;70.00;;;;;;5076726;28;20106;-71
2021/07/08 03:16:41;;;;;;;3.25;2.50;;;20.70;70.00;;;;;;5076390;28;20040;-72
2021/07/08 03:19:11;;;;;;;4.97;3.67;;;20.60;70.00;;;;;;5076776;28;20406;-72
2021/07/08 03:21:37;;;;;;;4.28;2.95;;;20.70;70.10;;;;;;5076773;28;21051;-71
2021/07/08 03:24:05;;;;;;;3.42;2.83;;;20.60;70.00;;;;;;5076172;28;20068;-72
2021/07/08 03:26:30;;;;;;;3.40;2.70;;;20.60;70.00;;;;;;5076357;28;20041;-71
2021/07/08 03:28:56;;;;;;;5.07;2.80;;;20.60;70.00;;;;;;5076312;28;20048;-72
2021/07/08 03:31:22;;;;;;;3.28;2.90;;;20.60;70.00;;;;;;5076376;28;20051;-72
2021/07/08 03:33:49;;;;;;;3.78;2.75;;;20.60;70.00;;;;;;5076417;28;20041;-72
2021/07/08 03:36:15;;;;;;;4.95;3.47;;;20.60;70.00;;;;;;5076687;28;20368;-71
2021/07/08 03:38:41;;;;;;;3.67;2.83;;;20.60;70.00;;;;;;5075690;28;20044;-72
2021/07/08 03:41:07;;;;;;;3.67;2.67;;;20.60;70.00;;;;;;5076308;28;20044;-73
2021/07/08 03:43:32;;;;;;;3.80;3.03;;;20.60;70.10;;;;;;5076133;28;20137;-72
2021/07/08 03:45:58;;;;;;;5.18;2.70;;;20.60;70.10;;;;;;5076251;28;20044;-72
2021/07/08 03:48:24;;;;;;;6.22;3.55;;;20.60;70.10;;;;;;5075389;28;20106;-73
2021/07/08 03:50:50;;;;;;;5.15;3.13;;;20.60;70.10;;;;;;5075691;28;20049;-72
2021/07/08 03:53:16;;;;;;;6.15;2.97;;;20.60;70.10;;;;;;5075407;28;20048;-72
2021/07/08 03:55:42;;;;;;;4.55;3.15;;;20.60;70.00;;;;;;5076054;28;20072;-73
2021/07/08 03:58:07;;;;;;;4.28;3.13;;;20.60;70.10;;;;;;5075865;28;20040;-72
2021/07/08 04:00:39;;;;;;;3.97;2.55;;;20.60;70.10;;;;;;5076439;28;20045;-73
2021/07/08 04:03:14;;;;;;;4.20;2.67;;;20.50;70.00;;;;;;5075773;28;20356;-71
2021/07/08 04:05:43;;;;;;;3.97;2.80;;;20.60;70.00;;;;;;5075469;28;20045;-72
2021/07/08 04:08:10;;;;;;;3.65;2.92;;;20.50;70.00;;;;;;5075378;28;20513;-72
2021/07/08 04:10:37;;;;;;;3.60;2.53;;;20.60;70.10;;;;;;5075854;28;20040;-72
2021/07/08 04:13:04;;;;;;;9.68;3.42;;;20.50;70.00;;;;;;5075614;28;20055;-73
2021/07/08 04:15:31;;;;;;;3.45;3.10;;;20.50;70.00;;;;;;5075564;28;20063;-72
2021/07/08 04:17:57;;;;;;;3.33;2.65;;;20.50;70.10;;;;;;5076181;28;20094;-72
2021/07/08 04:20:44;;;;;;;3.97;3.03;;;20.50;70.00;;;;;;5074857;28;20040;-72
2021/07/08 04:23:10;;;;;;;3.75;3.22;;;20.50;70.00;;;;;;5075464;28;20056;-71
2021/07/08 04:25:38;;;;;;;5.88;2.97;;;20.50;70.00;;;;;;5078310;28;20463;-74
2021/07/08 04:28:08;;;;;;;6.72;2.97;;;20.50;70.00;;;;;;5107342;28;20367;-72
2021/07/08 04:30:35;;;;;;;6.57;3.45;;;20.50;70.20;;;;;;5091920;28;20048;-75
2021/07/08 04:33:02;;;;;;;7.70;3.85;;;20.50;70.20;;;;;;5075353;28;20360;-76
2021/07/08 04:35:33;;;;;;;9.68;4.25;;;20.50;70.50;;;;;;5075810;28;20052;-72
2021/07/08 04:37:59;;;;;;;9.88;4.90;;;20.50;70.60;;;;;;5075289;28;20047;-72
2021/07/08 04:40:45;;;;;;;6.57;4.38;;;20.60;70.60;;;;;;5074586;28;20048;-73
2021/07/08 04:43:12;;;;;;;10.00;5.18;;;20.50;70.30;;;;;;5075730;28;20068;-75
2021/07/08 04:45:39;;;;;;;8.95;5.57;;;20.50;70.10;;;;;;5075034;28;20367;-73
2021/07/08 04:48:07;;;;;;;11.82;7.82;;;20.50;70.20;;;;;;5075183;28;20075;-73
2021/07/08 04:50:34;;;;;;;9.35;7.65;;;20.40;70.60;;;;;;5075236;28;20530;-71
2021/07/08 04:53:00;;;;;;;9.18;7.25;;;20.40;70.70;;;;;;5075352;28;20110;-73
2021/07/08 04:55:26;;;;;;;9.02;6.82;;;20.40;70.00;;;;;;5075424;28;20045;-74
2021/07/08 04:57:54;;;;;;;8.35;7.03;;;20.30;69.90;;;;;;5095038;28;20047;-69
2021/07/08 05:00:21;;;;;;;12.63;7.88;;;20.20;69.60;;;;;;5099717;28;20101;-74
2021/07/08 05:02:49;;;;;;;10.02;7.65;;;20.20;69.60;;;;;;5099585;28;20044;-73
2021/07/08 05:05:15;;;;;;;8.60;7.25;;;20.10;69.80;;;;;;5099325;28;20463;-76
2021/07/08 05:07:42;;;;;;;14.85;9.85;;;20.10;70.50;;;;;;5099389;28;20419;-75
2021/07/08 05:10:13;;;;;;;36.55;18.67;;;20.00;70.90;;;;;;5099332;28;20051;-76
2021/07/08 05:12:40;;;;;;;18.30;11.35;;;20.10;70.90;;;;;;5099324;28;20043;-75
2021/07/08 05:15:07;;;;;;;11.63;8.10;;;20.00;70.50;;;;;;5093008;28;20100;-75
2021/07/08 05:17:33;;;;;;;12.73;8.20;;;20.10;70.50;;;;;;5078777;28;20044;-76
2021/07/08 05:19:59;;;;;;;15.88;10.82;;;20.00;70.30;;;;;;5078754;28;20387;-78
2021/07/08 05:22:25;;;;;;;23.40;16.88;;;20.00;70.40;;;;;;5078756;28;20037;-74
2021/07/08 05:24:51;;;;;;;11.88;8.15;;;20.00;71.20;;;;;;5078355;28;20135;-74
2021/07/08 05:27:17;;;;;;;13.23;7.50;;;19.90;70.80;;;;;;5078962;28;20151;-74
2021/07/08 05:29:47;;;;;;;8.55;6.68;;;19.90;70.60;;;;;;5078586;28;20428;-74
2021/07/08 05:32:14;;;;;;;8.77;6.32;;;19.90;70.90;;;;;;5079250;28;20436;-79
2021/07/08 05:34:41;;;;;;;9.25;5.78;;;19.90;70.70;;;;;;5083995;28;20040;-73
2021/07/08 05:37:07;;;;;;;11.00;6.55;;;19.80;70.60;;;;;;5098440;28;20040;-75
2021/07/08 05:39:33;;;;;;;8.00;5.32;;;19.80;70.30;;;;;;5097863;28;20040;-76
2021/07/08 05:41:59;;;;;;;9.32;5.75;;;19.80;70.40;;;;;;5098670;28;20472;-76
2021/07/08 05:44:25;;;;;;;5.80;5.13;;;19.80;70.40;;;;;;5098795;28;20119;-75
2021/07/08 05:46:50;;;;;;;8.73;5.07;;;19.80;70.20;;;;;;5098881;28;20105;-76
2021/07/08 05:49:16;;;;;;;8.18;4.97;;;19.90;70.10;;;;;;5098475;28;20396;-75
2021/07/08 05:51:42;;;;;;;6.75;4.90;;;19.90;70.20;;;;;;5098537;28;20044;-76
2021/07/08 05:54:08;;;;;;;7.03;4.65;;;19.90;70.30;;;;;;5097752;28;20475;-76
2021/07/08 05:56:34;;;;;;;6.82;4.43;;;19.90;70.10;;;;;;5078046;28;20051;-76
2021/07/08 05:59:00;;;;;;;8.13;4.93;;;19.90;69.90;;;;;;5077938;28;20120;-76
2021/07/08 06:01:26;;;;;;;9.68;4.75;;;19.90;70.10;;;;;;5078057;28;20071;-76
2021/07/08 06:03:52;;;;;;;9.02;4.80;;;19.90;70.10;;;;;;5085094;28;20071;-76
2021/07/08 06:06:18;;;;;;;8.55;4.80;;;19.90;70.30;;;;;;5100227;28;20468;-78
2021/07/08 06:08:46;;;;;;;9.25;4.38;;;20.00;70.30;;;;;;5077636;28;20121;-77
2021/07/08 06:11:13;;;;;;;13.10;4.78;;;20.00;70.20;;;;;;5077424;28;20041;-74
2021/07/08 06:13:39;;;;;;;7.13;4.32;;;20.00;70.10;;;;;;5078176;28;20041;-76
2021/07/08 06:16:05;;;;;;;8.40;4.47;;;20.00;70.20;;;;;;5096662;28;20106;-75
2021/07/08 06:18:31;;;;;;;8.88;3.83;;;20.00;70.10;;;;;;5084220;28;20119;-75
2021/07/08 06:20:58;;;;;;;11.77;4.03;;;20.00;69.90;;;;;;5097547;28;20075;-76
2021/07/08 06:23:24;;;;;;;8.88;3.45;;;20.00;69.80;;;;;;5092795;28;20036;-77
2021/07/08 06:25:50;;;;;;;7.05;3.20;;;20.10;69.80;;;;;;5085003;28;20102;-79
2021/07/08 06:28:17;;;;;;;8.43;3.53;;;20.10;69.20;;;;;;5083523;28;20040;-79
2021/07/08 06:30:44;;;;;;;6.25;2.85;;;20.10;69.10;;;;;;5098191;28;20048;-79
2021/07/08 06:33:16;;;;;;;5.30;2.67;;;20.10;69.10;;;;;;5091110;28;20432;-79
2021/07/08 06:35:42;;;;;;;6.75;3.03;;;20.10;68.20;;;;;;5103217;28;20401;-81
2021/07/08 06:38:08;;;;;;;4.32;2.63;;;20.20;68.40;;;;;;5108909;28;20051;-76
2021/07/08 06:40:34;;;;;;;4.03;2.47;;;20.20;68.20;;;;;;5097317;28;20036;-76
2021/07/08 06:43:00;;;;;;;4.30;2.13;;;20.20;68.10;;;;;;5097844;28;20044;-83
2021/07/08 06:45:27;;;;;;;4.38;2.38;;;20.20;68.00;;;;;;5080378;28;20106;-81
2021/07/08 06:48:02;;;;;;;5.15;2.25;;;20.30;67.70;;;;;;5076610;28;20070;-76
2021/07/08 06:50:34;;;;;;;3.22;2.10;;;20.20;67.70;;;;;;5077644;28;20435;-79
2021/07/08 06:53:02;;;;;;;7.45;2.78;;;20.30;67.80;;;;;;5076802;28;20044;-79
2021/07/08 06:55:29;;;;;;;12.40;3.17;;;20.30;67.50;;;;;;5092431;28;20125;-72
2021/07/08 06:57:55;;;;;;;7.10;2.30;;;20.30;67.80;;;;;;5077269;28;20185;-71
2021/07/08 07:00:29;;;;;;;4.97;2.67;;;20.30;67.70;;;;;;5108059;28;20119;-71
2021/07/08 07:02:57;;;;;;;5.28;2.60;;;20.40;67.60;;;;;;5097486;28;20048;-71
2021/07/08 07:05:23;;;;;;;11.35;3.55;;;20.40;67.50;;;;;;5096975;28;20056;-73
2021/07/08 07:07:50;;;;;;;4.88;2.88;;;20.40;67.70;;;;;;5096899;28;20055;-73
2021/07/08 07:10:17;;;;;;;7.25;3.35;;;20.40;68.40;;;;;;5096953;28;20067;-72
2021/07/08 07:12:44;;;;;;;6.68;2.95;;;20.40;67.90;;;;;;5096897;28;20076;-72
2021/07/08 07:15:11;;;;;;;3.92;2.75;;;20.40;68.20;;;;;;5096321;28;20063;-72
2021/07/08 07:17:40;;;;;;;8.35;3.13;;;20.40;67.60;;;;;;5097025;28;20044;-70
2021/07/08 07:20:08;;;;;;;4.90;2.85;;;20.40;67.50;;;;;;5096680;28;20123;-69
2021/07/08 07:22:35;;;;;;;4.20;2.85;;;20.40;67.30;;;;;;5095919;28;20379;-70
2021/07/08 07:25:01;;;;;;;3.67;2.30;;;20.40;67.40;;;;;;5096579;28;20126;-71
2021/07/08 07:27:27;;;;;;;5.97;2.72;;;20.50;67.50;;;;;;5096533;28;20085;-71
2021/07/08 07:29:53;;;;;;;5.47;2.47;;;20.50;67.50;;;;;;5096500;28;20036;-70
2021/07/08 07:32:19;;;;;;;6.53;3.20;;;20.50;67.50;;;;;;5096050;28;20063;-71
2021/07/08 07:34:45;;;;;;;6.30;3.13;;;20.50;67.60;;;;;;5095954;28;20466;-71
2021/07/08 07:37:11;;;;;;;4.60;2.42;;;20.50;67.60;;;;;;5096567;28;20047;-71
2021/07/08 07:39:37;;;;;;;4.45;2.65;;;20.50;67.20;;;;;;5096440;28;20122;-71
2021/07/08 07:42:03;;;;;;;5.13;2.35;;;20.50;67.00;;;;;;5096219;28;20068;-72
2021/07/08 07:44:30;;;;;;;4.97;2.10;;;20.50;66.60;;;;;;5095975;28;20051;-70
2021/07/08 07:46:55;;;;;;;8.38;1.98;;;20.60;66.50;;;;;;5096439;28;20044;-70
2021/07/08 07:49:23;;;;;;;7.95;2.25;;;20.60;66.40;;;;;;5096128;28;20467;-70
2021/07/08 07:51:49;;;;;;;5.60;2.28;;;20.60;66.00;;;;;;5096244;28;20036;-70
2021/07/08 07:54:15;;;;;;;4.80;2.38;;;20.60;66.10;;;;;;5096098;28;20458;-71
2021/07/08 07:56:41;;;;;;;4.75;2.67;;;20.60;66.10;;;;;;5095951;28;20036;-71
2021/07/08 07:59:07;;;;;;;5.82;3.30;;;20.60;66.40;;;;;;5096547;28;20184;-70
2021/07/08 08:01:32;;;;;;;5.10;2.60;;;20.60;66.70;;;;;;5095700;28;20048;-70
2021/07/08 08:04:00;;;;;;;6.38;3.08;;;20.60;67.00;;;;;;5095564;28;20107;-70
2021/07/08 08:09:11;;;;;;;5.80;2.42;;;20.70;67.40;;;;;;5095698;28;20044;-71
2021/07/08 08:11:38;;;;;;;3.85;1.85;;;20.70;67.50;;;;;;5095700;28;20074;-70
2021/07/08 08:14:04;;;;;;;5.95;2.72;;;20.70;67.60;;;;;;5095504;28;20044;-71
2021/07/08 08:16:33;;;;;;;5.07;2.28;;;20.70;67.60;;;;;;5095933;28;20367;-70
2021/07/08 08:18:58;;;;;;;3.33;2.22;;;20.80;67.60;;;;;;5095550;28;20075;-71
2021/07/08 08:21:24;;;;;;;3.38;2.00;;;20.80;68.20;;;;;;5095839;28;20055;-71
2021/07/08 08:23:52;;;;;;;5.03;1.95;;;20.80;67.70;;;;;;5095771;28;20044;-71
2021/07/08 08:26:17;;;;;;;4.72;2.05;;;20.90;67.70;;;;;;5095479;28;20043;-71
2021/07/08 08:28:44;;;;;;;5.35;2.08;;;20.90;67.70;;;;;;5095523;28;20044;-70
2021/07/08 08:31:10;;;;;;;5.28;1.73;;;20.90;67.80;;;;;;5095671;28;20048;-70
2021/07/08 08:33:35;;;;;;;3.70;1.60;;;20.90;67.70;;;;;;5095094;28;20058;-70
2021/07/08 08:36:01;;;;;;;3.25;1.50;;;21.00;67.60;;;;;;5095425;28;20044;-70
2021/07/08 08:38:27;;;;;;;3.78;1.90;;;21.00;67.60;;;;;;5095559;28;20040;-70
2021/07/08 08:40:56;;;;;;;5.88;1.67;;;21.00;67.60;;;;;;5095871;28;20063;-71
2021/07/08 08:43:21;;;;;;;3.72;1.90;;;21.10;67.70;;;;;;5095417;28;20121;-70
2021/07/08 08:45:48;;;;;;;2.63;1.75;;;21.10;67.70;;;;;;5095360;28;20079;-71
2021/07/08 08:48:14;;;;;;;6.53;2.20;;;21.10;67.70;;;;;;5095226;28;20040;-70
2021/07/08 08:50:42;;;;;;;4.53;1.77;;;21.10;67.80;;;;;;5095185;28;20082;-70
2021/07/08 08:53:09;;;;;;;2.63;1.50;;;21.10;67.70;;;;;;5095519;28;20062;-71
2021/07/08 08:55:37;;;;;;;3.50;1.90;;;21.20;67.70;;;;;;5095224;28;20127;-70
2021/07/08 08:58:07;;;;;;;2.95;1.60;;;21.10;67.50;;;;;;5095661;28;20086;-69
2021/07/08 09:00:39;;;;;;;5.68;1.73;;;21.20;66.90;;;;;;5095125;28;20123;-71
2021/07/08 09:03:07;;;;;;;3.30;1.60;;;21.20;67.50;;;;;;5095070;28;20044;-70
2021/07/08 09:05:34;;;;;;;3.38;1.60;;;21.20;67.40;;;;;;5095322;28;20055;-71
2021/07/08 09:08:21;;;;;;;3.65;1.60;;;21.20;67.50;;;;;;5094818;28;20090;-71
2021/07/08 09:10:51;;;;;;;2.70;1.48;;;21.20;66.60;;;;;;5094747;28;20044;-71
2021/07/08 09:13:17;;;;;;;3.38;1.35;;;21.30;67.60;;;;;;5095272;28;20064;-71
2021/07/08 09:15:44;;;;;;;5.30;1.80;;;21.30;67.20;;;;;;5095649;28;20368;-71
2021/07/08 09:18:12;;;;;;;2.80;1.33;;;21.30;67.30;;;;;;5094879;28;20075;-71
2021/07/08 09:20:38;;;;;;;2.88;1.40;;;21.30;66.70;;;;;;5094615;28;20055;-70
2021/07/08 09:23:22;;;;;;;39.70;4.95;;;21.30;67.10;;;;;;5095037;28;20409;-70
2021/07/08 09:25:48;;;;;;;7.97;1.70;;;21.30;67.10;;;;;;5094996;28;20043;-71
2021/07/08 09:28:22;;;;;;;7.72;2.20;;;21.30;67.60;;;;;;5095034;28;20063;-70
2021/07/08 09:31:00;;;;;;;4.30;1.60;;;21.30;67.50;;;;;;5094847;28;20044;-70
2021/07/08 09:33:35;;;;;;;5.93;1.83;;;21.30;67.30;;;;;;5094791;28;20105;-70
2021/07/08 09:36:15;;;;;;;3.03;1.65;;;21.30;67.10;;;;;;5094640;28;20059;-70
2021/07/08 09:38:46;;;;;;;9.32;2.10;;;21.30;67.00;;;;;;5094574;28;20063;-70
2021/07/08 09:41:12;;;;;;;6.72;1.90;;;21.30;66.90;;;;;;5094785;28;20051;-71
2021/07/08 09:43:39;;;;;;;4.90;1.30;;;21.30;66.90;;;;;;5094666;28;20040;-71
2021/07/08 09:46:07;;;;;;;2.90;1.60;;;21.30;67.00;;;;;;5097005;28;20054;-70
2021/07/08 09:48:33;;;;;;;4.03;1.60;;;21.40;67.10;;;;;;5098849;28;20132;-73
2021/07/08 09:50:59;;;;;;;3.67;1.67;;;21.40;67.20;;;;;;5098446;28;20083;-71
2021/07/08 09:53:26;;;;;;;6.10;1.67;;;21.40;67.30;;;;;;5098638;28;20412;-71
2021/07/08 09:58:53;;;;;;;6.07;1.58;;;21.40;67.30;;;;;;5098091;28;20043;-71
2021/07/08 10:01:19;;;;;;;4.15;1.85;;;21.40;67.40;;;;;;5098422;28;20032;-71
2021/07/08 10:03:45;;;;;;;5.47;1.58;;;21.40;67.40;;;;;;5098322;28;20048;-71
2021/07/08 10:06:12;;;;;;;1.95;1.33;;;21.50;67.50;;;;;;5098901;28;20048;-70
2021/07/08 10:08:39;;;;;;;3.60;1.63;;;21.50;67.50;;;;;;5097882;28;20092;-71
2021/07/08 10:11:06;;;;;;;2.75;1.35;;;21.50;67.50;;;;;;5097927;28;20055;-71
2021/07/08 10:13:33;;;;;;;2.97;1.33;;;21.50;67.50;;;;;;5098884;28;20151;-73
2021/07/08 10:16:03;;;;;;;2.55;1.00;;;21.50;67.50;;;;;;5097837;28;20056;-72
2021/07/08 10:18:31;;;;;;;3.20;1.17;;;21.50;67.50;;;;;;5098052;28;20036;-71
2021/07/08 10:20:58;;;;;;;3.95;1.20;;;21.50;67.60;;;;;;5097725;28;20048;-74
2021/07/08 10:23:26;;;;;;;3.15;1.52;;;21.50;67.60;;;;;;5098099;28;20127;-70
2021/07/08 10:25:52;;;;;;;2.70;1.15;;;21.50;67.60;;;;;;5098128;28;20094;-72
2021/07/08 10:28:19;;;;;;;4.95;1.45;;;21.60;67.70;;;;;;5098193;28;20347;-72
2021/07/08 10:30:49;;;;;;;3.10;1.27;;;21.60;67.80;;;;;;5097656;28;20043;-77
2021/07/08 10:33:20;;;;;;;4.75;1.50;;;21.50;67.90;;;;;;5097849;28;20048;-71
2021/07/08 10:35:49;;;;;;;9.27;1.65;;;21.60;68.00;;;;;;5098019;28;20427;-71
2021/07/08 10:38:35;;;;;;;1.83;1.30;;;21.60;68.00;;;;;;5097732;28;20082;-71
2021/07/08 10:41:09;;;;;;;8.00;1.80;;;21.60;68.10;;;;;;5097393;28;20040;-71
2021/07/08 10:43:41;;;;;;;6.10;1.90;;;21.60;68.10;;;;;;5097678;28;20470;-72
2021/07/08 10:46:12;;;;;;;5.13;1.83;;;21.60;67.90;;;;;;5097151;28;20123;-71
2021/07/08 10:48:39;;;;;;;7.40;1.40;;;21.60;67.90;;;;;;5097604;28;20609;-71
2021/07/08 10:51:06;;;;;;;8.20;2.22;;;21.60;68.10;;;;;;5097883;28;20485;-71
2021/07/08 10:53:45;;;;;;;5.72;1.80;;;21.60;68.00;;;;;;5097523;28;20052;-71
2021/07/08 10:56:13;;;;;;;7.53;1.77;;;21.60;68.10;;;;;;5097231;28;20086;-70
2021/07/08 10:58:51;;;;;;;4.97;1.58;;;21.60;68.20;;;;;;5096821;28;20360;-71
2021/07/08 11:01:27;;;;;;;3.88;1.63;;;21.70;68.30;;;;;;5097186;28;20044;-71
2021/07/08 11:03:54;;;;;;;5.82;1.60;;;21.60;68.30;;;;;;5097863;28;20131;-70
2021/07/08 11:06:28;;;;;;;8.18;1.55;;;21.60;68.30;;;;;;5096885;28;20044;-71
2021/07/08 11:09:18;;;;;;;4.50;1.98;;;21.60;68.40;;;;;;5096949;28;20475;-70
2021/07/08 11:11:48;;;;;;;8.38;2.08;;;21.60;68.40;;;;;;5096899;28;20047;-71
2021/07/08 11:14:25;;;;;;;6.00;1.27;;;21.60;68.30;;;;;;5096911;28;20127;-71
2021/07/08 11:16:52;;;;;;;7.85;1.98;;;21.60;68.30;;;;;;5096975;28;20091;-71
2021/07/08 11:19:21;;;;;;;4.93;1.77;;;21.60;68.40;;;;;;5097566;28;20044;-71
2021/07/08 11:22:07;;;;;;;3.45;1.60;;;21.70;68.40;;;;;;5096409;28;20390;-71
2021/07/08 11:24:38;;;;;;;5.00;1.45;;;21.70;68.50;;;;;;5097210;28;20047;-71
2021/07/08 11:27:07;;;;;;;6.45;2.00;;;21.70;68.40;;;;;;5097395;28;20044;-71
2021/07/08 11:29:37;;;;;;;4.90;2.08;;;21.70;68.40;;;;;;5096843;28;20036;-72
2021/07/08 11:32:21;;;;;;;3.72;2.00;;;21.70;68.40;;;;;;5096300;28;20044;-71
2021/07/08 11:35:02;;;;;;;3.75;1.30;;;21.70;68.50;;;;;;5096690;28;20140;-70
2021/07/08 11:37:36;;;;;;;2.40;1.33;;;21.70;68.50;;;;;;5096108;28;20040;-71
2021/07/08 11:40:04;;;;;;;3.03;1.10;;;21.70;68.50;;;;;;5096444;28;20074;-70
2021/07/08 11:42:33;;;;;;;1.75;1.20;;;21.70;68.50;;;;;;5096057;28;20460;-71
2021/07/08 11:45:09;;;;;;;5.88;1.50;;;21.70;68.50;;;;;;5096414;28;20059;-72
2021/07/08 11:47:47;;;;;;;6.45;1.70;;;21.70;68.20;;;;;;5096619;28;20101;-72
2021/07/08 11:50:27;;;;;;;5.63;2.00;;;21.70;68.10;;;;;;5096618;28;20119;-71
2021/07/08 11:53:17;;;;;;;3.97;1.75;;;21.70;68.10;;;;;;5096675;28;20048;-71
2021/07/08 11:55:48;;;;;;;4.53;2.00;;;21.70;68.10;;;;;;5096200;28;20043;-72
2021/07/08 11:58:21;;;;;;;4.88;1.30;;;21.70;68.10;;;;;;5096072;28;20537;-72
2021/07/08 12:00:48;;;;;;;2.55;1.40;;;21.70;68.10;;;;;;5096340;28;20048;-72
2021/07/08 12:03:47;;;;;;;4.15;1.65;;;21.70;68.10;;;;;;5095982;28;21238;-72
2021/07/08 12:06:28;;;;;;;4.45;2.10;;;21.70;68.10;;;;;;5096015;28;20051;-72
2021/07/08 12:08:58;;;;;;;3.60;1.88;;;21.80;68.20;;;;;;5095346;28;20130;-71
2021/07/08 12:11:41;;;;;;;2.72;1.35;;;21.70;68.10;;;;;;5096043;28;20069;-72
2021/07/08 12:14:15;;;;;;;2.65;1.45;;;21.70;68.10;;;;;;5095712;28;20047;-71
2021/07/08 12:16:44;;;;;;;2.90;1.55;;;21.80;68.20;;;;;;5094273;28;20134;-72
2021/07/08 12:19:24;;;;;;;3.13;1.45;;;21.70;68.10;;;;;;5095622;28;20052;-71
2021/07/08 12:21:52;;;;;;;2.80;1.40;;;21.80;68.20;;;;;;5095403;28;20043;-72
2021/07/08 12:24:29;;;;;;;3.63;1.58;;;21.80;68.20;;;;;;5095473;28;20055;-72
2021/07/08 12:26:59;;;;;;;2.78;1.63;;;21.80;68.30;;;;;;5095565;28;20048;-72
2021/07/08 12:29:29;;;;;;;4.60;1.80;;;21.80;68.40;;;;;;5095334;28;20071;-72
2021/07/08 12:31:56;;;;;;;5.68;1.73;;;21.80;68.30;;;;;;5095368;28;20044;-72
2021/07/08 12:34:26;;;;;;;4.60;1.40;;;21.80;68.30;;;;;;5095249;28;20125;-72
2021/07/08 12:36:53;;;;;;;3.83;2.08;;;21.80;68.30;;;;;;5095219;28;20040;-72
2021/07/08 12:39:28;;;;;;;1.75;1.60;;;21.80;68.40;;;;;;5094336;28;20059;-72
2021/07/08 12:41:54;;;;;;;2.53;1.52;;;21.80;68.40;;;;;;5095171;28;20373;-72
2021/07/08 12:44:20;;;;;;;2.45;1.40;;;21.80;68.40;;;;;;5095304;28;20093;-72
2021/07/08 12:46:52;;;;;;;1.92;1.58;;;21.80;68.50;;;;;;5095159;28;20148;-72
2021/07/08 12:49:19;;;;;;;1.90;1.40;;;21.80;68.40;;;;;;5095179;28;20044;-71
2021/07/08 12:51:45;;;;;;;1.73;1.30;;;21.80;68.50;;;;;;5094891;28;20040;-72
2021/07/08 12:54:11;;;;;;;3.88;1.95;;;21.80;68.50;;;;;;5094920;28;20352;-72
2021/07/08 12:56:37;;;;;;;3.25;1.60;;;21.80;68.50;;;;;;5093943;28;20054;-72